sensor_id;sensor_type;location;lat;lon;timestamp;pressure;altitude;pressure_sealevel;temperature;humidity
7834;BME280;3962;42.696;23.354;2023-11-21T00:01:05;95002.66;;;4.64;90.57
7834;BME280;3962;42.696;23.354;2023-11-21T00:03:34;95011.41;;;4.64;90.78
7834;BME280;3962;42.696;23.354;2023-11-21T00:06:01;95009.00;;;4.61;91.33
7834;BME280;3962;42.696;23.354;2023-11-21T00:08:29;95020.75;;;4.57;91.25
7834;BME280;3962;42.696;23.354;2023-11-21T00:10:56;95017.59;;;4.52;90.75
7834;BME280;3962;42.696;23.354;2023-11-21T00:13:25;95003.84;;;4.49;91.07
7834;BME280;3962;42.696;23.354;2023-11-21T00:15:52;95008.59;;;4.44;91.53
7834;BME280;3962;42.696;23.354;2023-11-21T00:18:20;95016.84;;;4.39;91.99
7834;BME280;3962;42.696;23.354;2023-11-21T00:20:47;95015.53;;;4.34;91.80
7834;BME280;3962;42.696;23.354;2023-11-21T00:23:14;95018.16;;;4.34;91.97
7834;BME280;3962;42.696;23.354;2023-11-21T00:25:42;95012.91;;;4.34;92.48
7834;BME280;3962;42.696;23.354;2023-11-21T00:28:09;95012.09;;;4.33;92.35
7834;BME280;3962;42.696;23.354;2023-11-21T00:30:36;95004.91;;;4.35;92.70
7834;BME280;3962;42.696;23.354;2023-11-21T00:33:03;94994.56;;;4.32;93.18
7834;BME280;3962;42.696;23.354;2023-11-21T00:35:30;95000.94;;;4.41;93.53
7834;BME280;3962;42.696;23.354;2023-11-21T00:37:57;95002.88;;;4.39;93.34
7834;BME280;3962;42.696;23.354;2023-11-21T00:40:24;95004.53;;;4.51;93.14
7834;BME280;3962;42.696;23.354;2023-11-21T00:42:52;95010.06;;;4.59;93.25
7834;BME280;3962;42.696;23.354;2023-11-21T00:45:19;95003.13;;;4.58;92.95
7834;BME280;3962;42.696;23.354;2023-11-21T00:47:46;95004.19;;;4.55;92.26
7834;BME280;3962;42.696;23.354;2023-11-21T00:50:13;95012.84;;;4.57;92.17
7834;BME280;3962;42.696;23.354;2023-11-21T00:52:40;95012.84;;;4.57;92.35
7834;BME280;3962;42.696;23.354;2023-11-21T00:55:08;95004.09;;;4.57;91.71
7834;BME280;3962;42.696;23.354;2023-11-21T00:57:35;95004.19;;;4.55;91.43
7834;BME280;3962;42.696;23.354;2023-11-21T01:00:05;95003.47;;;4.53;91.64
7834;BME280;3962;42.696;23.354;2023-11-21T01:02:34;94996.38;;;4.43;91.45
7834;BME280;3962;42.696;23.354;2023-11-21T01:05:02;94998.81;;;4.46;92.08
7834;BME280;3962;42.696;23.354;2023-11-21T01:07:29;94991.13;;;4.43;91.89
7834;BME280;3962;42.696;23.354;2023-11-21T01:09:56;94991.97;;;4.43;91.99
7834;BME280;3962;42.696;23.354;2023-11-21T01:12:22;94994.00;;;4.40;91.47
7834;BME280;3962;42.696;23.354;2023-11-21T01:14:50;94992.34;;;4.39;92.03
7834;BME280;3962;42.696;23.354;2023-11-21T01:17:18;94989.69;;;4.39;91.78
7834;BME280;3962;42.696;23.354;2023-11-21T01:19:48;94986.22;;;4.38;91.77
7834;BME280;3962;42.696;23.354;2023-11-21T01:22:15;94995.19;;;4.36;91.26
7834;BME280;3962;42.696;23.354;2023-11-21T01:24:41;94991.00;;;4.33;91.55
7834;BME280;3962;42.696;23.354;2023-11-21T01:27:08;94996.75;;;4.27;92.00
7834;BME280;3962;42.696;23.354;2023-11-21T01:29:35;95001.03;;;4.17;92.27
7834;BME280;3962;42.696;23.354;2023-11-21T01:32:02;94991.19;;;4.08;92.63
7834;BME280;3962;42.696;23.354;2023-11-21T01:34:31;94990.81;;;4.02;92.89
7834;BME280;3962;42.696;23.354;2023-11-21T01:36:58;94984.22;;;3.96;93.22
7834;BME280;3962;42.696;23.354;2023-11-21T01:39:25;94988.50;;;3.86;93.82
7834;BME280;3962;42.696;23.354;2023-11-21T01:41:52;94991.25;;;3.85;93.86
7834;BME280;3962;42.696;23.354;2023-11-21T01:44:19;94996.59;;;3.83;93.87
7834;BME280;3962;42.696;23.354;2023-11-21T01:46:46;94991.47;;;3.82;94.27
7834;BME280;3962;42.696;23.354;2023-11-21T01:49:14;95001.16;;;3.81;94.03
7834;BME280;3962;42.696;23.354;2023-11-21T01:51:43;94986.31;;;3.80;93.84
7834;BME280;3962;42.696;23.354;2023-11-21T01:54:12;94977.56;;;3.80;93.83
7834;BME280;3962;42.696;23.354;2023-11-21T01:56:39;94982.00;;;3.79;93.71
7834;BME280;3962;42.696;23.354;2023-11-21T01:59:06;94977.53;;;3.69;94.00
7834;BME280;3962;42.696;23.354;2023-11-21T02:01:33;94990.19;;;3.64;94.06
7834;BME280;3962;42.696;23.354;2023-11-21T02:04:00;94983.16;;;3.64;93.93
7834;BME280;3962;42.696;23.354;2023-11-21T02:06:27;94978.84;;;3.63;94.10
7834;BME280;3962;42.696;23.354;2023-11-21T02:08:57;94979.28;;;3.57;94.51
7834;BME280;3962;42.696;23.354;2023-11-21T02:11:25;94982.47;;;3.50;94.07
7834;BME280;3962;42.696;23.354;2023-11-21T02:13:52;94982.69;;;3.47;94.79
7834;BME280;3962;42.696;23.354;2023-11-21T02:16:20;94978.06;;;3.50;95.18
7834;BME280;3962;42.696;23.354;2023-11-21T02:18:47;94989.19;;;3.54;95.26
7834;BME280;3962;42.696;23.354;2023-11-21T02:21:15;94990.31;;;3.62;95.97
7834;BME280;3962;42.696;23.354;2023-11-21T02:23:43;94989.13;;;3.66;95.68
7834;BME280;3962;42.696;23.354;2023-11-21T02:26:11;94975.16;;;3.66;95.83
7834;BME280;3962;42.696;23.354;2023-11-21T02:28:39;94974.53;;;3.62;95.70
7834;BME280;3962;42.696;23.354;2023-11-21T02:31:06;94977.66;;;3.67;95.57
7834;BME280;3962;42.696;23.354;2023-11-21T02:33:33;94984.03;;;3.76;95.95
7834;BME280;3962;42.696;23.354;2023-11-21T02:36:00;94973.97;;;3.70;95.46
7834;BME280;3962;42.696;23.354;2023-11-21T02:38:27;94971.84;;;3.75;95.48
7834;BME280;3962;42.696;23.354;2023-11-21T02:40:57;94968.34;;;3.74;95.54
7834;BME280;3962;42.696;23.354;2023-11-21T02:43:24;94973.16;;;3.80;95.93
7834;BME280;3962;42.696;23.354;2023-11-21T02:45:51;94975.09;;;3.78;95.88
7834;BME280;3962;42.696;23.354;2023-11-21T02:48:18;94977.09;;;3.75;94.86
7834;BME280;3962;42.696;23.354;2023-11-21T02:50:45;94980.41;;;3.66;94.22
7834;BME280;3962;42.696;23.354;2023-11-21T02:53:12;94975.59;;;3.60;94.44
7834;BME280;3962;42.696;23.354;2023-11-21T02:55:38;94979.06;;;3.60;94.86
7834;BME280;3962;42.696;23.354;2023-11-21T02:58:07;94978.22;;;3.60;94.37
7834;BME280;3962;42.696;23.354;2023-11-21T03:00:33;94976.41;;;3.60;94.54
7834;BME280;3962;42.696;23.354;2023-11-21T03:03:00;94977.72;;;3.55;94.77
7834;BME280;3962;42.696;23.354;2023-11-21T03:05:27;94976.28;;;3.51;94.35
7834;BME280;3962;42.696;23.354;2023-11-21T03:07:55;94977.22;;;3.50;94.55
7834;BME280;3962;42.696;23.354;2023-11-21T03:10:22;94972.19;;;3.47;94.62
7834;BME280;3962;42.696;23.354;2023-11-21T03:12:48;94975.78;;;3.46;94.51
7834;BME280;3962;42.696;23.354;2023-11-21T03:15:17;94984.63;;;3.45;94.91
7834;BME280;3962;42.696;23.354;2023-11-21T03:17:43;94978.97;;;3.39;94.43
7834;BME280;3962;42.696;23.354;2023-11-21T03:20:11;94974.50;;;3.28;94.67
7834;BME280;3962;42.696;23.354;2023-11-21T03:22:39;94985.78;;;3.18;95.38
7834;BME280;3962;42.696;23.354;2023-11-21T03:25:06;94990.94;;;3.19;95.29
7834;BME280;3962;42.696;23.354;2023-11-21T03:27:36;94986.31;;;3.23;95.93
7834;BME280;3962;42.696;23.354;2023-11-21T03:30:05;94982.47;;;3.27;95.63
7834;BME280;3962;42.696;23.354;2023-11-21T03:32:34;94988.25;;;3.32;96.30
7834;BME280;3962;42.696;23.354;2023-11-21T03:35:01;94986.97;;;3.37;96.06
7834;BME280;3962;42.696;23.354;2023-11-21T03:37:29;94983.91;;;3.43;95.50
7834;BME280;3962;42.696;23.354;2023-11-21T03:39:56;94984.63;;;3.45;96.00
7834;BME280;3962;42.696;23.354;2023-11-21T03:42:23;94985.28;;;3.36;95.11
7834;BME280;3962;42.696;23.354;2023-11-21T03:44:51;94979.91;;;3.38;96.04
7834;BME280;3962;42.696;23.354;2023-11-21T03:47:17;94981.03;;;3.46;96.04
7834;BME280;3962;42.696;23.354;2023-11-21T03:49:47;94968.41;;;3.51;95.37
7834;BME280;3962;42.696;23.354;2023-11-21T03:52:14;94964.66;;;3.53;95.60
7834;BME280;3962;42.696;23.354;2023-11-21T03:54:40;94956.78;;;3.53;95.39
7834;BME280;3962;42.696;23.354;2023-11-21T03:57:08;94958.59;;;3.53;95.00
7834;BME280;3962;42.696;23.354;2023-11-21T03:59:35;94956.16;;;3.50;94.80
7834;BME280;3962;42.696;23.354;2023-11-21T04:02:02;94957.81;;;3.40;95.06
7834;BME280;3962;42.696;23.354;2023-11-21T04:04:29;94963.13;;;3.28;95.29
7834;BME280;3962;42.696;23.354;2023-11-21T04:06:57;94961.06;;;3.20;95.00
7834;BME280;3962;42.696;23.354;2023-11-21T04:09:24;94957.41;;;3.10;95.49
7834;BME280;3962;42.696;23.354;2023-11-21T04:11:51;94950.31;;;3.00;95.92
7834;BME280;3962;42.696;23.354;2023-11-21T04:14:18;94956.00;;;2.94;96.15
7834;BME280;3962;42.696;23.354;2023-11-21T04:16:45;94951.72;;;2.93;96.46
7834;BME280;3962;42.696;23.354;2023-11-21T04:19:11;94954.03;;;2.85;96.34
7834;BME280;3962;42.696;23.354;2023-11-21T04:21:40;94959.00;;;2.77;97.72
7834;BME280;3962;42.696;23.354;2023-11-21T04:24:08;94955.63;;;2.75;97.43
7834;BME280;3962;42.696;23.354;2023-11-21T04:26:35;94953.63;;;2.78;97.56
7834;BME280;3962;42.696;23.354;2023-11-21T04:29:02;94961.72;;;2.75;96.57
7834;BME280;3962;42.696;23.354;2023-11-21T04:31:30;94964.91;;;2.68;97.51
7834;BME280;3962;42.696;23.354;2023-11-21T04:33:57;94959.75;;;2.66;97.48
7834;BME280;3962;42.696;23.354;2023-11-21T04:36:24;94962.47;;;2.65;97.18
7834;BME280;3962;42.696;23.354;2023-11-21T04:38:50;94957.13;;;2.66;97.25
7834;BME280;3962;42.696;23.354;2023-11-21T04:41:19;94952.69;;;2.67;97.52
7834;BME280;3962;42.696;23.354;2023-11-21T04:43:46;94953.31;;;2.70;97.00
7834;BME280;3962;42.696;23.354;2023-11-21T04:46:12;94961.00;;;2.73;96.88
7834;BME280;3962;42.696;23.354;2023-11-21T04:48:39;94964.69;;;2.71;97.08
7834;BME280;3962;42.696;23.354;2023-11-21T04:51:06;94963.84;;;2.70;97.04
7834;BME280;3962;42.696;23.354;2023-11-21T04:53:33;94965.31;;;2.74;97.18
7834;BME280;3962;42.696;23.354;2023-11-21T04:56:00;94961.72;;;2.75;97.86
7834;BME280;3962;42.696;23.354;2023-11-21T04:58:28;94965.72;;;2.81;97.26
7834;BME280;3962;42.696;23.354;2023-11-21T05:00:55;94966.75;;;2.78;97.40
7834;BME280;3962;42.696;23.354;2023-11-21T05:03:22;94968.22;;;2.82;96.96
7834;BME280;3962;42.696;23.354;2023-11-21T05:05:49;94967.06;;;2.86;96.17
7834;BME280;3962;42.696;23.354;2023-11-21T05:08:16;94970.31;;;2.90;96.45
7834;BME280;3962;42.696;23.354;2023-11-21T05:10:44;94967.56;;;2.91;96.19
7834;BME280;3962;42.696;23.354;2023-11-21T05:13:11;94962.41;;;2.90;96.03
7834;BME280;3962;42.696;23.354;2023-11-21T05:15:39;94962.09;;;2.94;96.89
7834;BME280;3962;42.696;23.354;2023-11-21T05:18:06;94951.66;;;3.05;97.13
7834;BME280;3962;42.696;23.354;2023-11-21T05:20:33;94949.94;;;3.17;96.42
7834;BME280;3962;42.696;23.354;2023-11-21T05:23:00;94950.66;;;3.19;96.70
7834;BME280;3962;42.696;23.354;2023-11-21T05:25:27;94948.31;;;3.27;95.45
7834;BME280;3962;42.696;23.354;2023-11-21T05:27:53;94960.41;;;3.29;95.16
7834;BME280;3962;42.696;23.354;2023-11-21T05:30:21;94959.88;;;3.24;95.06
7834;BME280;3962;42.696;23.354;2023-11-21T05:32:49;94967.91;;;3.23;94.71
7834;BME280;3962;42.696;23.354;2023-11-21T05:35:16;94968.63;;;3.25;94.92
7834;BME280;3962;42.696;23.354;2023-11-21T05:37:44;94969.25;;;3.28;94.83
7834;BME280;3962;42.696;23.354;2023-11-21T05:40:11;94967.09;;;3.33;94.46
7834;BME280;3962;42.696;23.354;2023-11-21T05:42:39;94973.31;;;3.32;94.92
7834;BME280;3962;42.696;23.354;2023-11-21T05:45:07;94974.16;;;3.33;94.27
7834;BME280;3962;42.696;23.354;2023-11-21T05:47:37;94985.91;;;3.40;94.86
7834;BME280;3962;42.696;23.354;2023-11-21T05:50:08;94980.75;;;3.38;94.41
7834;BME280;3962;42.696;23.354;2023-11-21T05:52:40;94979.19;;;3.36;94.54
7834;BME280;3962;42.696;23.354;2023-11-21T05:55:07;94968.19;;;3.31;94.69
7834;BME280;3962;42.696;23.354;2023-11-21T05:57:34;94965.38;;;3.21;94.80
7834;BME280;3962;42.696;23.354;2023-11-21T06:00:03;94964.03;;;3.16;95.12
7834;BME280;3962;42.696;23.354;2023-11-21T06:02:37;94969.16;;;3.17;95.12
7834;BME280;3962;42.696;23.354;2023-11-21T06:05:05;94965.03;;;3.26;96.05
7834;BME280;3962;42.696;23.354;2023-11-21T06:07:33;94970.81;;;3.31;95.84
7834;BME280;3962;42.696;23.354;2023-11-21T06:10:01;94977.28;;;3.38;95.70
7834;BME280;3962;42.696;23.354;2023-11-21T06:12:28;94976.94;;;3.42;95.97
7834;BME280;3962;42.696;23.354;2023-11-21T06:14:55;94979.97;;;3.48;96.48
7834;BME280;3962;42.696;23.354;2023-11-21T06:17:22;94979.84;;;3.50;96.05
7834;BME280;3962;42.696;23.354;2023-11-21T06:19:50;94984.50;;;3.47;95.85
7834;BME280;3962;42.696;23.354;2023-11-21T06:22:18;94985.09;;;3.50;96.15
7834;BME280;3962;42.696;23.354;2023-11-21T06:24:46;94985.94;;;3.50;96.04
7834;BME280;3962;42.696;23.354;2023-11-21T06:27:13;94985.28;;;3.59;95.91
7834;BME280;3962;42.696;23.354;2023-11-21T06:29:41;94990.31;;;3.62;95.12
7834;BME280;3962;42.696;23.354;2023-11-21T06:32:08;94990.31;;;3.62;95.09
7834;BME280;3962;42.696;23.354;2023-11-21T06:34:35;94990.81;;;3.67;95.26
7834;BME280;3962;42.696;23.354;2023-11-21T06:37:02;94999.22;;;3.72;94.75
7834;BME280;3962;42.696;23.354;2023-11-21T06:39:29;94994.56;;;3.76;94.46
7834;BME280;3962;42.696;23.354;2023-11-21T06:41:57;94997.66;;;3.81;94.83
7834;BME280;3962;42.696;23.354;2023-11-21T06:44:26;95003.53;;;3.84;94.17
7834;BME280;3962;42.696;23.354;2023-11-21T06:46:53;95006.91;;;3.86;93.99
7834;BME280;3962;42.696;23.354;2023-11-21T06:49:20;94999.06;;;3.97;94.22
7834;BME280;3962;42.696;23.354;2023-11-21T06:51:46;95003.09;;;3.90;94.23
7834;BME280;3962;42.696;23.354;2023-11-21T06:54:13;95000.72;;;3.98;94.00
7834;BME280;3962;42.696;23.354;2023-11-21T06:56:41;95004.59;;;4.05;94.04
7834;BME280;3962;42.696;23.354;2023-11-21T06:59:09;95005.50;;;4.50;94.60
7834;BME280;3962;42.696;23.354;2023-11-21T07:01:36;95006.34;;;4.50;92.90
7834;BME280;3962;42.696;23.354;2023-11-21T07:04:05;95008.28;;;4.48;92.40
7834;BME280;3962;42.696;23.354;2023-11-21T07:06:32;95011.50;;;4.52;91.81
7834;BME280;3962;42.696;23.354;2023-11-21T07:08:59;95002.97;;;4.26;91.66
7834;BME280;3962;42.696;23.354;2023-11-21T07:11:27;95003.94;;;4.36;92.37
7834;BME280;3962;42.696;23.354;2023-11-21T07:13:54;94995.94;;;4.49;91.77
7834;BME280;3962;42.696;23.354;2023-11-21T07:16:23;94996.63;;;4.51;91.68
7834;BME280;3962;42.696;23.354;2023-11-21T07:18:50;94994.50;;;4.67;91.42
7834;BME280;3962;42.696;23.354;2023-11-21T07:21:17;94996.06;;;4.91;91.34
7834;BME280;3962;42.696;23.354;2023-11-21T07:23:44;94995.56;;;5.08;90.98
7834;BME280;3962;42.696;23.354;2023-11-21T07:26:11;94992.19;;;5.17;89.65
7834;BME280;3962;42.696;23.354;2023-11-21T07:28:38;94998.28;;;5.29;89.59
7834;BME280;3962;42.696;23.354;2023-11-21T07:31:05;94998.88;;;5.32;89.06
7834;BME280;3962;42.696;23.354;2023-11-21T07:33:33;95002.47;;;5.42;88.26
7834;BME280;3962;42.696;23.354;2023-11-21T07:36:00;95005.09;;;5.53;87.74
7834;BME280;3962;42.696;23.354;2023-11-21T07:38:27;94998.34;;;5.60;87.51
7834;BME280;3962;42.696;23.354;2023-11-21T07:40:54;95003.84;;;5.68;87.24
7834;BME280;3962;42.696;23.354;2023-11-21T07:43:21;94994.69;;;5.72;86.80
7834;BME280;3962;42.696;23.354;2023-11-21T07:45:48;94995.53;;;5.84;86.49
7834;BME280;3962;42.696;23.354;2023-11-21T07:48:15;94990.44;;;5.92;86.16
7834;BME280;3962;42.696;23.354;2023-11-21T07:50:43;94983.81;;;5.97;86.30
7834;BME280;3962;42.696;23.354;2023-11-21T07:53:12;94978.09;;;5.92;85.20
7834;BME280;3962;42.696;23.354;2023-11-21T07:55:40;94986.50;;;6.18;85.53
7834;BME280;3962;42.696;23.354;2023-11-21T07:58:07;94979.97;;;6.42;85.21
7834;BME280;3962;42.696;23.354;2023-11-21T08:00:34;94993.31;;;6.61;84.01
7834;BME280;3962;42.696;23.354;2023-11-21T08:03:01;94979.16;;;7.02;82.74
7834;BME280;3962;42.696;23.354;2023-11-21T08:05:28;94985.66;;;7.18;81.79
7834;BME280;3962;42.696;23.354;2023-11-21T08:07:56;94983.00;;;7.18;80.36
7834;BME280;3962;42.696;23.354;2023-11-21T08:10:23;94974.72;;;7.02;80.63
7834;BME280;3962;42.696;23.354;2023-11-21T08:12:50;94977.03;;;6.86;79.96
7834;BME280;3962;42.696;23.354;2023-11-21T08:15:17;94964.78;;;6.95;80.78
7834;BME280;3962;42.696;23.354;2023-11-21T08:17:44;94970.41;;;7.50;81.24
7834;BME280;3962;42.696;23.354;2023-11-21T08:20:12;94975.19;;;7.94;79.67
7834;BME280;3962;42.696;23.354;2023-11-21T08:22:41;94978.00;;;8.21;77.25
7834;BME280;3962;42.696;23.354;2023-11-21T08:25:10;94975.75;;;8.26;76.30
7834;BME280;3962;42.696;23.354;2023-11-21T08:27:38;94967.25;;;8.32;76.45
7834;BME280;3962;42.696;23.354;2023-11-21T08:30:06;94980.25;;;8.35;76.17
7834;BME280;3962;42.696;23.354;2023-11-21T08:32:33;94976.56;;;8.64;75.01
7834;BME280;3962;42.696;23.354;2023-11-21T08:35:01;94972.19;;;8.73;74.79
7834;BME280;3962;42.696;23.354;2023-11-21T08:37:27;94973.59;;;8.77;73.80
7834;BME280;3962;42.696;23.354;2023-11-21T08:39:58;94969.41;;;8.65;73.63
7834;BME280;3962;42.696;23.354;2023-11-21T08:42:27;94973.66;;;8.48;74.50
7834;BME280;3962;42.696;23.354;2023-11-21T08:44:55;94973.09;;;8.45;74.87
7834;BME280;3962;42.696;23.354;2023-11-21T08:47:23;94966.56;;;8.39;75.09
7834;BME280;3962;42.696;23.354;2023-11-21T08:49:51;94963.47;;;8.34;74.76
7834;BME280;3962;42.696;23.354;2023-11-21T08:52:18;94969.34;;;8.38;74.56
7834;BME280;3962;42.696;23.354;2023-11-21T08:54:46;94966.53;;;8.49;75.27
7834;BME280;3962;42.696;23.354;2023-11-21T08:57:13;94956.34;;;8.44;75.40
7834;BME280;3962;42.696;23.354;2023-11-21T08:59:42;94945.53;;;8.65;74.91
7834;BME280;3962;42.696;23.354;2023-11-21T09:02:09;94944.31;;;8.96;73.99
7834;BME280;3962;42.696;23.354;2023-11-21T09:04:36;94944.84;;;9.09;73.15
7834;BME280;3962;42.696;23.354;2023-11-21T09:07:03;94933.59;;;8.88;73.39
7834;BME280;3962;42.696;23.354;2023-11-21T09:09:30;94927.69;;;8.67;74.27
7834;BME280;3962;42.696;23.354;2023-11-21T09:11:57;94918.97;;;8.47;73.76
7834;BME280;3962;42.696;23.354;2023-11-21T09:14:26;94906.69;;;8.18;75.38
7834;BME280;3962;42.696;23.354;2023-11-21T09:16:54;94899.91;;;8.06;76.34
7834;BME280;3962;42.696;23.354;2023-11-21T09:19:23;94904.63;;;8.02;76.89
7834;BME280;3962;42.696;23.354;2023-11-21T09:21:50;94898.09;;;7.97;77.48
7834;BME280;3962;42.696;23.354;2023-11-21T09:24:17;94889.84;;;7.90;77.39
7834;BME280;3962;42.696;23.354;2023-11-21T09:26:44;94892.38;;;7.92;78.35
7834;BME280;3962;42.696;23.354;2023-11-21T09:29:10;94884.69;;;8.08;78.08
7834;BME280;3962;42.696;23.354;2023-11-21T09:31:37;94873.00;;;8.20;77.17
7834;BME280;3962;42.696;23.354;2023-11-21T09:34:06;94857.91;;;8.20;76.41
7834;BME280;3962;42.696;23.354;2023-11-21T09:36:33;94849.53;;;8.25;76.94
7834;BME280;3962;42.696;23.354;2023-11-21T09:39:00;94841.56;;;8.25;75.89
7834;BME280;3962;42.696;23.354;2023-11-21T09:41:34;94841.19;;;8.20;76.19
7834;BME280;3962;42.696;23.354;2023-11-21T09:44:08;94837.81;;;8.27;76.60
7834;BME280;3962;42.696;23.354;2023-11-21T09:46:40;94841.53;;;8.44;76.14
7834;BME280;3962;42.696;23.354;2023-11-21T09:49:10;94830.94;;;8.44;75.40
7834;BME280;3962;42.696;23.354;2023-11-21T09:51:39;94826.09;;;8.57;75.41
7834;BME280;3962;42.696;23.354;2023-11-21T09:54:08;94810.06;;;8.58;74.78
7834;BME280;3962;42.696;23.354;2023-11-21T09:56:37;94792.50;;;8.57;74.93
7834;BME280;3962;42.696;23.354;2023-11-21T09:59:05;94799.88;;;8.63;75.35
7834;BME280;3962;42.696;23.354;2023-11-21T10:01:36;94796.56;;;8.79;75.64
7834;BME280;3962;42.696;23.354;2023-11-21T10:04:04;94787.69;;;8.88;75.19
7834;BME280;3962;42.696;23.354;2023-11-21T10:06:39;94789.25;;;9.08;74.19
7834;BME280;3962;42.696;23.354;2023-11-21T10:09:09;94795.94;;;9.29;74.21
7834;BME280;3962;42.696;23.354;2023-11-21T10:11:39;94796.53;;;9.41;73.47
7834;BME280;3962;42.696;23.354;2023-11-21T10:14:08;94798.66;;;9.55;72.67
7834;BME280;3962;42.696;23.354;2023-11-21T10:16:38;94794.50;;;9.70;72.41
7834;BME280;3962;42.696;23.354;2023-11-21T10:19:06;94780.94;;;9.81;71.59
7834;BME280;3962;42.696;23.354;2023-11-21T10:21:38;94776.69;;;9.88;71.15
7834;BME280;3962;42.696;23.354;2023-11-21T10:24:06;94782.16;;;9.86;70.84
7834;BME280;3962;42.696;23.354;2023-11-21T10:26:34;94770.69;;;9.86;70.76
7834;BME280;3962;42.696;23.354;2023-11-21T10:29:02;94768.72;;;9.88;70.95
7834;BME280;3962;42.696;23.354;2023-11-21T10:31:29;94768.66;;;9.80;70.52
7834;BME280;3962;42.696;23.354;2023-11-21T10:34:14;94762.41;;;9.89;70.43
7834;BME280;3962;42.696;23.354;2023-11-21T10:36:43;94752.44;;;9.91;69.77
7834;BME280;3962;42.696;23.354;2023-11-21T10:39:14;94752.00;;;9.95;69.51
7834;BME280;3962;42.696;23.354;2023-11-21T10:41:43;94755.00;;;10.00;69.12
7834;BME280;3962;42.696;23.354;2023-11-21T10:44:10;94740.34;;;10.14;69.15
7834;BME280;3962;42.696;23.354;2023-11-21T10:46:40;94749.56;;;10.27;68.42
7834;BME280;3962;42.696;23.354;2023-11-21T10:49:08;94743.25;;;10.28;68.07
7834;BME280;3962;42.696;23.354;2023-11-21T10:51:35;94737.50;;;10.41;68.52
7834;BME280;3962;42.696;23.354;2023-11-21T10:54:04;94743.00;;;10.47;68.12
7834;BME280;3962;42.696;23.354;2023-11-21T10:56:33;94741.72;;;10.51;67.91
7834;BME280;3962;42.696;23.354;2023-11-21T10:59:07;94733.72;;;10.51;67.51
7834;BME280;3962;42.696;23.354;2023-11-21T11:01:34;94733.03;;;10.49;66.72
7834;BME280;3962;42.696;23.354;2023-11-21T11:04:03;94728.53;;;10.42;66.83
7834;BME280;3962;42.696;23.354;2023-11-21T11:06:35;94717.19;;;10.32;67.86
7834;BME280;3962;42.696;23.354;2023-11-21T11:09:05;94715.81;;;10.28;67.30
7834;BME280;3962;42.696;23.354;2023-11-21T11:11:34;94716.81;;;10.27;66.34
7834;BME280;3962;42.696;23.354;2023-11-21T11:14:04;94721.16;;;10.28;66.63
7834;BME280;3962;42.696;23.354;2023-11-21T11:16:32;94715.88;;;10.36;67.04
7834;BME280;3962;42.696;23.354;2023-11-21T11:19:00;94710.69;;;10.34;67.09
7834;BME280;3962;42.696;23.354;2023-11-21T11:21:37;94694.09;;;10.40;66.57
7834;BME280;3962;42.696;23.354;2023-11-21T11:24:33;94695.47;;;10.44;66.90
7834;BME280;3962;42.696;23.354;2023-11-21T11:27:10;94688.81;;;10.48;66.37
7834;BME280;3962;42.696;23.354;2023-11-21T11:29:46;94688.34;;;10.53;66.55
7834;BME280;3962;42.696;23.354;2023-11-21T11:32:36;94682.34;;;10.51;66.50
7834;BME280;3962;42.696;23.354;2023-11-21T11:35:11;94673.72;;;10.49;66.82
7834;BME280;3962;42.696;23.354;2023-11-21T11:37:42;94679.16;;;10.39;67.36
7834;BME280;3962;42.696;23.354;2023-11-21T11:40:12;94675.00;;;10.45;67.33
7834;BME280;3962;42.696;23.354;2023-11-21T11:42:55;94677.88;;;10.51;67.18
7834;BME280;3962;42.696;23.354;2023-11-21T11:45:24;94669.72;;;10.53;67.08
7834;BME280;3962;42.696;23.354;2023-11-21T11:48:00;94677.22;;;10.57;67.00
7834;BME280;3962;42.696;23.354;2023-11-21T11:50:26;94692.03;;;10.60;67.37
7834;BME280;3962;42.696;23.354;2023-11-21T11:52:54;94691.19;;;10.51;66.91
7834;BME280;3962;42.696;23.354;2023-11-21T11:55:24;94700.97;;;10.51;67.80
7834;BME280;3962;42.696;23.354;2023-11-21T11:57:55;94691.28;;;10.42;68.45
7834;BME280;3962;42.696;23.354;2023-11-21T12:00:33;94687.94;;;10.32;69.02
7834;BME280;3962;42.696;23.354;2023-11-21T12:03:04;94687.22;;;10.22;70.29
7834;BME280;3962;42.696;23.354;2023-11-21T12:05:32;94682.41;;;10.25;71.40
7834;BME280;3962;42.696;23.354;2023-11-21T12:08:02;94683.38;;;10.16;70.09
7834;BME280;3962;42.696;23.354;2023-11-21T12:10:32;94687.50;;;10.11;70.77
7834;BME280;3962;42.696;23.354;2023-11-21T12:13:00;94686.59;;;10.02;72.14
7834;BME280;3962;42.696;23.354;2023-11-21T12:15:27;94692.03;;;9.93;73.08
7834;BME280;3962;42.696;23.354;2023-11-21T12:17:57;94681.75;;;9.98;74.84
7834;BME280;3962;42.696;23.354;2023-11-21T12:20:25;94691.34;;;9.91;76.42
7834;BME280;3962;42.696;23.354;2023-11-21T12:22:54;94684.78;;;9.77;75.69
7834;BME280;3962;42.696;23.354;2023-11-21T12:25:22;94678.59;;;9.69;76.61
7834;BME280;3962;42.696;23.354;2023-11-21T12:27:52;94672.34;;;9.52;79.13
7834;BME280;3962;42.696;23.354;2023-11-21T12:30:21;94680.38;;;9.17;81.28
7834;BME280;3962;42.696;23.354;2023-11-21T12:32:50;94673.75;;;9.21;81.84
7834;BME280;3962;42.696;23.354;2023-11-21T12:35:17;94683.19;;;9.16;83.27
7834;BME280;3962;42.696;23.354;2023-11-21T12:37:45;94697.78;;;9.20;84.18
7834;BME280;3962;42.696;23.354;2023-11-21T12:40:14;94686.22;;;9.21;84.63
7834;BME280;3962;42.696;23.354;2023-11-21T12:42:45;94684.16;;;9.15;85.35
7834;BME280;3962;42.696;23.354;2023-11-21T12:45:22;94675.47;;;9.05;85.48
7834;BME280;3962;42.696;23.354;2023-11-21T12:47:51;94684.09;;;9.07;84.11
7834;BME280;3962;42.696;23.354;2023-11-21T12:50:21;94659.09;;;8.92;85.31
7834;BME280;3962;42.696;23.354;2023-11-21T12:52:50;94659.38;;;9.06;85.77
7834;BME280;3962;42.696;23.354;2023-11-21T12:55:20;94657.78;;;9.13;85.51
7834;BME280;3962;42.696;23.354;2023-11-21T12:57:49;94655.25;;;9.12;86.49
7834;BME280;3962;42.696;23.354;2023-11-21T13:00:18;94650.53;;;9.23;86.52
7834;BME280;3962;42.696;23.354;2023-11-21T13:02:56;94644.25;;;9.24;84.82
7834;BME280;3962;42.696;23.354;2023-11-21T13:05:28;94646.09;;;9.24;83.86
7834;BME280;3962;42.696;23.354;2023-11-21T13:07:55;94636.88;;;9.36;84.07
7834;BME280;3962;42.696;23.354;2023-11-21T13:10:23;94639.84;;;9.33;84.53
7834;BME280;3962;42.696;23.354;2023-11-21T13:12:55;94642.66;;;9.31;84.82
7834;BME280;3962;42.696;23.354;2023-11-21T13:15:23;94633.88;;;9.31;85.56
7834;BME280;3962;42.696;23.354;2023-11-21T13:17:51;94634.00;;;9.29;84.86
7834;BME280;3962;42.696;23.354;2023-11-21T13:20:20;94640.47;;;9.27;84.52
7834;BME280;3962;42.696;23.354;2023-11-21T13:22:48;94637.72;;;9.36;84.17
7834;BME280;3962;42.696;23.354;2023-11-21T13:25:15;94632.25;;;9.38;83.95